sensor_id;sensor_type;location;lat;lon;timestamp;P1;durP1;ratioP1;P2;durP2;ratioP2
52322;SDS011;38263;52.920;6.238;2023-08-17T00:01:46;6.85;;;3.35;;
52322;SDS011;38263;52.920;6.238;2023-08-17T00:04:12;8.27;;;2.90;;
52322;SDS011;38263;52.920;6.238;2023-08-17T00:06:38;8.05;;;2.72;;
52322;SDS011;38263;52.920;6.238;2023-08-17T00:09:04;5.50;;;2.72;;
52322;SDS011;38263;52.920;6.238;2023-08-17T00:11:30;5.65;;;3.13;;
52322;SDS011;38263;52.920;6.238;2023-08-17T00:13:56;5.25;;;2.45;;
52322;SDS011;38263;52.920;6.238;2023-08-17T00:16:22;4.20;;;2.70;;
52322;SDS011;38263;52.920;6.238;2023-08-17T00:18:48;4.57;;;2.47;;
52322;SDS011;38263;52.920;6.238;2023-08-17T00:21:14;6.20;;;2.35;;
52322;SDS011;38263;52.920;6.238;2023-08-17T00:23:40;3.35;;;2.20;;
52322;SDS011;38263;52.920;6.238;2023-08-17T00:26:06;5.07;;;2.47;;
52322;SDS011;38263;52.920;6.238;2023-08-17T00:28:32;8.65;;;2.28;;
52322;SDS011;38263;52.920;6.238;2023-08-17T00:30:59;5.38;;;2.20;;
52322;SDS011;38263;52.920;6.238;2023-08-17T00:33:25;5.53;;;2.25;;
52322;SDS011;38263;52.920;6.238;2023-08-17T00:35:50;9.88;;;1.90;;
52322;SDS011;38263;52.920;6.238;2023-08-17T00:38:16;3.65;;;1.90;;
52322;SDS011;38263;52.920;6.238;2023-08-17T00:40:42;4.90;;;2.10;;
52322;SDS011;38263;52.920;6.238;2023-08-17T00:43:08;6.82;;;1.95;;
52322;SDS011;38263;52.920;6.238;2023-08-17T00:45:34;6.50;;;1.88;;
52322;SDS011;38263;52.920;6.238;2023-08-17T00:48:00;7.10;;;2.28;;
52322;SDS011;38263;52.920;6.238;2023-08-17T00:50:26;5.40;;;2.20;;
52322;SDS011;38263;52.920;6.238;2023-08-17T00:52:54;5.13;;;2.00;;
52322;SDS011;38263;52.920;6.238;2023-08-17T00:55:20;4.47;;;1.92;;
52322;SDS011;38263;52.920;6.238;2023-08-17T00:57:47;5.95;;;1.70;;
52322;SDS011;38263;52.920;6.238;2023-08-17T01:00:13;6.93;;;2.58;;
52322;SDS011;38263;52.920;6.238;2023-08-17T01:02:42;6.28;;;1.90;;
52322;SDS011;38263;52.920;6.238;2023-08-17T01:05:09;5.13;;;1.85;;
52322;SDS011;38263;52.920;6.238;2023-08-17T01:07:35;3.63;;;1.98;;
52322;SDS011;38263;52.920;6.238;2023-08-17T01:10:02;6.47;;;2.28;;
52322;SDS011;38263;52.920;6.238;2023-08-17T01:12:32;3.97;;;2.00;;
52322;SDS011;38263;52.920;6.238;2023-08-17T01:15:19;3.53;;;1.75;;
52322;SDS011;38263;52.920;6.238;2023-08-17T01:17:54;6.72;;;2.53;;
52322;SDS011;38263;52.920;6.238;2023-08-17T01:20:25;3.75;;;1.88;;
52322;SDS011;38263;52.920;6.238;2023-08-17T01:22:52;5.55;;;2.08;;
52322;SDS011;38263;52.920;6.238;2023-08-17T01:25:22;3.97;;;1.95;;
52322;SDS011;38263;52.920;6.238;2023-08-17T01:27:48;6.10;;;1.80;;
52322;SDS011;38263;52.920;6.238;2023-08-17T01:30:15;6.72;;;1.95;;
52322;SDS011;38263;52.920;6.238;2023-08-17T01:33:06;5.97;;;1.85;;
52322;SDS011;38263;52.920;6.238;2023-08-17T01:35:43;5.03;;;1.90;;
52322;SDS011;38263;52.920;6.238;2023-08-17T01:38:22;4.28;;;1.80;;
52322;SDS011;38263;52.920;6.238;2023-08-17T01:40:49;5.38;;;1.80;;
52322;SDS011;38263;52.920;6.238;2023-08-17T01:43:16;6.13;;;2.15;;
52322;SDS011;38263;52.920;6.238;2023-08-17T01:45:43;8.65;;;1.73;;
52322;SDS011;38263;52.920;6.238;2023-08-17T01:48:09;4.05;;;1.90;;
52322;SDS011;38263;52.920;6.238;2023-08-17T01:50:35;4.50;;;1.77;;
52322;SDS011;38263;52.920;6.238;2023-08-17T01:53:01;5.78;;;2.05;;
52322;SDS011;38263;52.920;6.238;2023-08-17T01:55:26;6.63;;;1.90;;
52322;SDS011;38263;52.920;6.238;2023-08-17T01:57:52;4.95;;;2.20;;
52322;SDS011;38263;52.920;6.238;2023-08-17T02:00:18;4.00;;;1.83;;
52322;SDS011;38263;52.920;6.238;2023-08-17T02:02:44;7.70;;;2.67;;
52322;SDS011;38263;52.920;6.238;2023-08-17T02:05:10;8.02;;;1.85;;
52322;SDS011;38263;52.920;6.238;2023-08-17T02:07:36;4.75;;;1.55;;
52322;SDS011;38263;52.920;6.238;2023-08-17T02:10:02;4.82;;;1.83;;
52322;SDS011;38263;52.920;6.238;2023-08-17T02:12:28;7.50;;;2.05;;
52322;SDS011;38263;52.920;6.238;2023-08-17T02:14:54;5.35;;;2.47;;
52322;SDS011;38263;52.920;6.238;2023-08-17T02:17:20;5.82;;;2.05;;
52322;SDS011;38263;52.920;6.238;2023-08-17T02:19:47;3.47;;;1.67;;
52322;SDS011;38263;52.920;6.238;2023-08-17T02:22:13;6.07;;;2.28;;
52322;SDS011;38263;52.920;6.238;2023-08-17T02:24:39;7.53;;;2.00;;
52322;SDS011;38263;52.920;6.238;2023-08-17T02:27:06;3.78;;;1.95;;
52322;SDS011;38263;52.920;6.238;2023-08-17T02:29:32;5.05;;;1.92;;
52322;SDS011;38263;52.920;6.238;2023-08-17T02:31:57;4.75;;;2.20;;
52322;SDS011;38263;52.920;6.238;2023-08-17T02:34:23;4.25;;;2.65;;
52322;SDS011;38263;52.920;6.238;2023-08-17T02:36:49;6.28;;;2.05;;
52322;SDS011;38263;52.920;6.238;2023-08-17T02:39:15;4.68;;;2.13;;
52322;SDS011;38263;52.920;6.238;2023-08-17T02:41:41;5.68;;;2.15;;
52322;SDS011;38263;52.920;6.238;2023-08-17T02:44:07;3.78;;;2.05;;
52322;SDS011;38263;52.920;6.238;2023-08-17T02:46:33;3.20;;;1.98;;
52322;SDS011;38263;52.920;6.238;2023-08-17T02:48:58;4.18;;;2.08;;
52322;SDS011;38263;52.920;6.238;2023-08-17T02:51:24;4.30;;;1.98;;
52322;SDS011;38263;52.920;6.238;2023-08-17T02:53:50;6.32;;;2.58;;
52322;SDS011;38263;52.920;6.238;2023-08-17T02:56:16;7.75;;;3.28;;
52322;SDS011;38263;52.920;6.238;2023-08-17T02:58:42;3.45;;;2.35;;
52322;SDS011;38263;52.920;6.238;2023-08-17T03:01:08;5.15;;;2.30;;
52322;SDS011;38263;52.920;6.238;2023-08-17T03:03:34;6.93;;;3.17;;
52322;SDS011;38263;52.920;6.238;2023-08-17T03:06:00;3.50;;;2.35;;
52322;SDS011;38263;52.920;6.238;2023-08-17T03:08:27;5.65;;;2.92;;
52322;SDS011;38263;52.920;6.238;2023-08-17T03:10:52;6.10;;;2.47;;
52322;SDS011;38263;52.920;6.238;2023-08-17T03:13:18;4.50;;;2.28;;
52322;SDS011;38263;52.920;6.238;2023-08-17T03:15:44;6.85;;;2.70;;
52322;SDS011;38263;52.920;6.238;2023-08-17T03:18:10;6.00;;;2.67;;
52322;SDS011;38263;52.920;6.238;2023-08-17T03:20:36;4.53;;;2.42;;
52322;SDS011;38263;52.920;6.238;2023-08-17T03:23:02;7.13;;;2.95;;
52322;SDS011;38263;52.920;6.238;2023-08-17T03:25:31;4.95;;;2.28;;
52322;SDS011;38263;52.920;6.238;2023-08-17T03:27:57;4.95;;;2.70;;
52322;SDS011;38263;52.920;6.238;2023-08-17T03:30:23;7.55;;;2.83;;
52322;SDS011;38263;52.920;6.238;2023-08-17T03:32:48;6.05;;;3.28;;
52322;SDS011;38263;52.920;6.238;2023-08-17T03:35:14;7.97;;;2.97;;
52322;SDS011;38263;52.920;6.238;2023-08-17T03:37:40;7.78;;;2.92;;
52322;SDS011;38263;52.920;6.238;2023-08-17T03:40:06;8.45;;;2.90;;
52322;SDS011;38263;52.920;6.238;2023-08-17T03:42:32;9.05;;;2.75;;
52322;SDS011;38263;52.920;6.238;2023-08-17T03:44:58;6.35;;;2.97;;
52322;SDS011;38263;52.920;6.238;2023-08-17T03:47:24;6.93;;;2.83;;
52322;SDS011;38263;52.920;6.238;2023-08-17T03:49:51;6.05;;;2.70;;
52322;SDS011;38263;52.920;6.238;2023-08-17T03:52:16;4.82;;;2.42;;
52322;SDS011;38263;52.920;6.238;2023-08-17T03:54:42;3.65;;;2.58;;
52322;SDS011;38263;52.920;6.238;2023-08-17T03:57:08;5.53;;;3.17;;
52322;SDS011;38263;52.920;6.238;2023-08-17T03:59:34;6.68;;;2.60;;
52322;SDS011;38263;52.920;6.238;2023-08-17T04:02:00;9.60;;;2.88;;
52322;SDS011;38263;52.920;6.238;2023-08-17T04:04:26;7.32;;;3.10;;
52322;SDS011;38263;52.920;6.238;2023-08-17T04:06:52;5.50;;;2.80;;
52322;SDS011;38263;52.920;6.238;2023-08-17T04:09:18;6.82;;;3.28;;
52322;SDS011;38263;52.920;6.238;2023-08-17T04:11:44;5.68;;;3.17;;
52322;SDS011;38263;52.920;6.238;2023-08-17T04:14:09;3.88;;;2.60;;
52322;SDS011;38263;52.920;6.238;2023-08-17T04:16:35;7.43;;;3.60;;
52322;SDS011;38263;52.920;6.238;2023-08-17T04:19:01;7.78;;;3.03;;
52322;SDS011;38263;52.920;6.238;2023-08-17T04:21:27;6.93;;;3.47;;
52322;SDS011;38263;52.920;6.238;2023-08-17T04:23:53;4.28;;;2.70;;
52322;SDS011;38263;52.920;6.238;2023-08-17T04:26:19;7.95;;;3.53;;
52322;SDS011;38263;52.920;6.238;2023-08-17T04:28:45;6.00;;;3.00;;
52322;SDS011;38263;52.920;6.238;2023-08-17T04:31:11;6.53;;;2.72;;
52322;SDS011;38263;52.920;6.238;2023-08-17T04:33:37;9.23;;;4.38;;
52322;SDS011;38263;52.920;6.238;2023-08-17T04:36:03;6.57;;;3.10;;
52322;SDS011;38263;52.920;6.238;2023-08-17T04:38:30;8.85;;;2.63;;
52322;SDS011;38263;52.920;6.238;2023-08-17T04:40:55;4.63;;;3.17;;
52322;SDS011;38263;52.920;6.238;2023-08-17T04:43:21;6.05;;;3.13;;
52322;SDS011;38263;52.920;6.238;2023-08-17T04:45:47;8.73;;;3.05;;
52322;SDS011;38263;52.920;6.238;2023-08-17T04:48:13;8.60;;;3.10;;
52322;SDS011;38263;52.920;6.238;2023-08-17T04:50:39;8.63;;;3.30;;
52322;SDS011;38263;52.920;6.238;2023-08-17T04:53:05;6.32;;;2.75;;
52322;SDS011;38263;52.920;6.238;2023-08-17T04:55:31;8.40;;;2.80;;
52322;SDS011;38263;52.920;6.238;2023-08-17T04:57:57;4.63;;;2.38;;
52322;SDS011;38263;52.920;6.238;2023-08-17T05:00:22;7.28;;;3.03;;
52322;SDS011;38263;52.920;6.238;2023-08-17T05:02:53;7.47;;;3.25;;
52322;SDS011;38263;52.920;6.238;2023-08-17T05:05:19;7.07;;;2.67;;
52322;SDS011;38263;52.920;6.238;2023-08-17T05:07:45;5.10;;;2.60;;
52322;SDS011;38263;52.920;6.238;2023-08-17T05:10:10;6.22;;;2.30;;
52322;SDS011;38263;52.920;6.238;2023-08-17T05:12:36;5.15;;;3.00;;
52322;SDS011;38263;52.920;6.238;2023-08-17T05:15:03;5.60;;;2.30;;
52322;SDS011;38263;52.920;6.238;2023-08-17T05:17:29;4.47;;;2.65;;
52322;SDS011;38263;52.920;6.238;2023-08-17T05:19:55;4.15;;;2.55;;
52322;SDS011;38263;52.920;6.238;2023-08-17T05:22:20;15.05;;;3.13;;
52322;SDS011;38263;52.920;6.238;2023-08-17T05:24:46;5.63;;;2.50;;
52322;SDS011;38263;52.920;6.238;2023-08-17T05:27:12;5.88;;;3.15;;
52322;SDS011;38263;52.920;6.238;2023-08-17T05:29:38;12.68;;;3.45;;
52322;SDS011;38263;52.920;6.238;2023-08-17T05:32:04;4.05;;;2.17;;
52322;SDS011;38263;52.920;6.238;2023-08-17T05:34:30;4.43;;;2.38;;
52322;SDS011;38263;52.920;6.238;2023-08-17T05:36:56;5.53;;;2.25;;
52322;SDS011;38263;52.920;6.238;2023-08-17T05:39:22;8.60;;;1.85;;
52322;SDS011;38263;52.920;6.238;2023-08-17T05:41:49;4.43;;;1.70;;
52322;SDS011;38263;52.920;6.238;2023-08-17T05:44:15;5.25;;;2.13;;
52322;SDS011;38263;52.920;6.238;2023-08-17T05:46:40;3.58;;;2.53;;
52322;SDS011;38263;52.920;6.238;2023-08-17T05:49:06;4.07;;;2.08;;
52322;SDS011;38263;52.920;6.238;2023-08-17T05:51:32;4.35;;;2.15;;
52322;SDS011;38263;52.920;6.238;2023-08-17T05:53:57;4.88;;;1.98;;
52322;SDS011;38263;52.920;6.238;2023-08-17T05:56:23;4.78;;;2.25;;
52322;SDS011;38263;52.920;6.238;2023-08-17T05:58:49;5.30;;;1.70;;
52322;SDS011;38263;52.920;6.238;2023-08-17T06:01:15;5.72;;;1.80;;
52322;SDS011;38263;52.920;6.238;2023-08-17T06:03:41;4.88;;;1.88;;
52322;SDS011;38263;52.920;6.238;2023-08-17T06:06:07;5.85;;;1.90;;
52322;SDS011;38263;52.920;6.238;2023-08-17T06:08:33;6.80;;;1.80;;
52322;SDS011;38263;52.920;6.238;2023-08-17T06:10:59;6.88;;;2.28;;
52322;SDS011;38263;52.920;6.238;2023-08-17T06:13:26;9.00;;;2.10;;
52322;SDS011;38263;52.920;6.238;2023-08-17T06:15:51;4.57;;;1.75;;
52322;SDS011;38263;52.920;6.238;2023-08-17T06:18:17;5.28;;;1.90;;
52322;SDS011;38263;52.920;6.238;2023-08-17T06:20:45;7.90;;;2.08;;
52322;SDS011;38263;52.920;6.238;2023-08-17T06:23:13;4.75;;;1.73;;
52322;SDS011;38263;52.920;6.238;2023-08-17T06:25:39;9.77;;;2.28;;
52322;SDS011;38263;52.920;6.238;2023-08-17T06:28:05;5.45;;;2.28;;
52322;SDS011;38263;52.920;6.238;2023-08-17T06:30:31;7.38;;;1.90;;
52322;SDS011;38263;52.920;6.238;2023-08-17T06:32:57;5.85;;;2.13;;
52322;SDS011;38263;52.920;6.238;2023-08-17T06:35:24;3.92;;;1.38;;
52322;SDS011;38263;52.920;6.238;2023-08-17T06:37:50;6.68;;;2.10;;
52322;SDS011;38263;52.920;6.238;2023-08-17T06:40:18;4.68;;;1.58;;
52322;SDS011;38263;52.920;6.238;2023-08-17T06:42:44;9.40;;;2.03;;
52322;SDS011;38263;52.920;6.238;2023-08-17T06:45:10;5.78;;;1.55;;
52322;SDS011;38263;52.920;6.238;2023-08-17T06:47:35;5.72;;;1.73;;
52322;SDS011;38263;52.920;6.238;2023-08-17T06:50:01;5.18;;;1.55;;
52322;SDS011;38263;52.920;6.238;2023-08-17T06:52:27;3.42;;;0.77;;
52322;SDS011;38263;52.920;6.238;2023-08-17T06:54:52;4.57;;;1.90;;
52322;SDS011;38263;52.920;6.238;2023-08-17T06:57:18;5.38;;;1.15;;
52322;SDS011;38263;52.920;6.238;2023-08-17T06:59:43;7.88;;;1.38;;
52322;SDS011;38263;52.920;6.238;2023-08-17T07:02:11;4.88;;;1.20;;
52322;SDS011;38263;52.920;6.238;2023-08-17T07:04:36;4.80;;;1.20;;
52322;SDS011;38263;52.920;6.238;2023-08-17T07:07:02;3.35;;;0.82;;
52322;SDS011;38263;52.920;6.238;2023-08-17T07:09:28;3.55;;;1.23;;
52322;SDS011;38263;52.920;6.238;2023-08-17T07:11:53;5.43;;;1.10;;
52322;SDS011;38263;52.920;6.238;2023-08-17T07:14:19;4.38;;;1.10;;
52322;SDS011;38263;52.920;6.238;2023-08-17T07:16:45;4.40;;;1.27;;
52322;SDS011;38263;52.920;6.238;2023-08-17T07:19:11;4.10;;;1.60;;
52322;SDS011;38263;52.920;6.238;2023-08-17T07:21:38;4.85;;;1.08;;
52322;SDS011;38263;52.920;6.238;2023-08-17T07:24:13;7.10;;;1.60;;
52322;SDS011;38263;52.920;6.238;2023-08-17T07:26:40;8.82;;;1.77;;
52322;SDS011;38263;52.920;6.238;2023-08-17T07:29:06;5.72;;;1.50;;
52322;SDS011;38263;52.920;6.238;2023-08-17T07:31:32;5.63;;;1.48;;
52322;SDS011;38263;52.920;6.238;2023-08-17T07:33:59;4.88;;;1.20;;
52322;SDS011;38263;52.920;6.238;2023-08-17T07:36:25;6.68;;;1.67;;
52322;SDS011;38263;52.920;6.238;2023-08-17T07:38:51;6.38;;;1.10;;
52322;SDS011;38263;52.920;6.238;2023-08-17T07:41:17;4.53;;;1.42;;
52322;SDS011;38263;52.920;6.238;2023-08-17T07:43:43;4.82;;;1.23;;
52322;SDS011;38263;52.920;6.238;2023-08-17T07:46:08;8.88;;;1.67;;
52322;SDS011;38263;52.920;6.238;2023-08-17T07:48:34;3.38;;;1.40;;
52322;SDS011;38263;52.920;6.238;2023-08-17T07:50:59;5.68;;;1.38;;
52322;SDS011;38263;52.920;6.238;2023-08-17T07:53:25;5.40;;;1.02;;
52322;SDS011;38263;52.920;6.238;2023-08-17T07:55:51;3.28;;;1.42;;
52322;SDS011;38263;52.920;6.238;2023-08-17T07:58:17;2.72;;;1.33;;
52322;SDS011;38263;52.920;6.238;2023-08-17T08:00:43;2.90;;;1.35;;
52322;SDS011;38263;52.920;6.238;2023-08-17T08:03:08;3.97;;;1.00;;
52322;SDS011;38263;52.920;6.238;2023-08-17T08:05:34;5.07;;;1.10;;
52322;SDS011;38263;52.920;6.238;2023-08-17T08:08:00;5.72;;;1.60;;
52322;SDS011;38263;52.920;6.238;2023-08-17T08:10:27;2.28;;;0.70;;
52322;SDS011;38263;52.920;6.238;2023-08-17T08:12:53;4.15;;;0.80;;
52322;SDS011;38263;52.920;6.238;2023-08-17T08:15:19;3.10;;;0.90;;
52322;SDS011;38263;52.920;6.238;2023-08-17T08:17:44;2.55;;;0.82;;
52322;SDS011;38263;52.920;6.238;2023-08-17T08:20:10;5.20;;;1.00;;
52322;SDS011;38263;52.920;6.238;2023-08-17T08:22:36;6.25;;;0.70;;
52322;SDS011;38263;52.920;6.238;2023-08-17T08:25:02;3.35;;;0.70;;
52322;SDS011;38263;52.920;6.238;2023-08-17T08:27:28;3.55;;;1.02;;
52322;SDS011;38263;52.920;6.238;2023-08-17T08:29:54;1.88;;;1.00;;
52322;SDS011;38263;52.920;6.238;2023-08-17T08:32:19;3.05;;;1.00;;
52322;SDS011;38263;52.920;6.238;2023-08-17T08:34:45;5.80;;;1.02;;
52322;SDS011;38263;52.920;6.238;2023-08-17T08:37:11;8.60;;;1.42;;
52322;SDS011;38263;52.920;6.238;2023-08-17T08:39:52;4.25;;;1.00;;
52322;SDS011;38263;52.920;6.238;2023-08-17T08:42:19;4.93;;;1.20;;
52322;SDS011;38263;52.920;6.238;2023-08-17T08:44:46;4.03;;;0.70;;
52322;SDS011;38263;52.920;6.238;2023-08-17T08:47:12;6.35;;;1.00;;
52322;SDS011;38263;52.920;6.238;2023-08-17T08:49:45;3.10;;;0.70;;
52322;SDS011;38263;52.920;6.238;2023-08-17T08:52:35;1.60;;;0.93;;
52322;SDS011;38263;52.920;6.238;2023-08-17T08:55:10;1.02;;;0.60;;
52322;SDS011;38263;52.920;6.238;2023-08-17T08:57:39;3.63;;;1.13;;
52322;SDS011;38263;52.920;6.238;2023-08-17T09:00:07;3.90;;;1.00;;
52322;SDS011;38263;52.920;6.238;2023-08-17T09:02:34;4.03;;;0.80;;
52322;SDS011;38263;52.920;6.238;2023-08-17T09:05:00;3.33;;;0.85;;
52322;SDS011;38263;52.920;6.238;2023-08-17T09:07:30;3.65;;;0.77;;
52322;SDS011;38263;52.920;6.238;2023-08-17T09:09:56;4.18;;;0.90;;
52322;SDS011;38263;52.920;6.238;2023-08-17T09:12:22;5.40;;;0.80;;
52322;SDS011;38263;52.920;6.238;2023-08-17T09:14:48;2.97;;;0.60;;
52322;SDS011;38263;52.920;6.238;2023-08-17T09:17:13;2.58;;;1.30;;
52322;SDS011;38263;52.920;6.238;2023-08-17T09:19:39;3.00;;;1.20;;
52322;SDS011;38263;52.920;6.238;2023-08-17T09:22:04;8.35;;;0.90;;
52322;SDS011;38263;52.920;6.238;2023-08-17T09:24:33;5.10;;;1.85;;
52322;SDS011;38263;52.920;6.238;2023-08-17T09:27:00;5.93;;;1.30;;
52322;SDS011;38263;52.920;6.238;2023-08-17T09:29:26;2.20;;;0.70;;
52322;SDS011;38263;52.920;6.238;2023-08-17T09:31:52;5.28;;;0.73;;
52322;SDS011;38263;52.920;6.238;2023-08-17T09:34:18;4.93;;;0.85;;
52322;SDS011;38263;52.920;6.238;2023-08-17T09:36:47;5.97;;;1.00;;
52322;SDS011;38263;52.920;6.238;2023-08-17T09:39:12;5.85;;;0.95;;
52322;SDS011;38263;52.920;6.238;2023-08-17T09:41:43;6.57;;;0.98;;
52322;SDS011;38263;52.920;6.238;2023-08-17T09:44:09;4.05;;;0.80;;
52322;SDS011;38263;52.920;6.238;2023-08-17T09:46:36;3.13;;;1.08;;
52322;SDS011;38263;52.920;6.238;2023-08-17T09:49:02;4.78;;;1.17;;
52322;SDS011;38263;52.920;6.238;2023-08-17T09:51:29;3.75;;;0.90;;
52322;SDS011;38263;52.920;6.238;2023-08-17T09:53:55;2.28;;;0.60;;
52322;SDS011;38263;52.920;6.238;2023-08-17T09:56:21;3.13;;;1.33;;
52322;SDS011;38263;52.920;6.238;2023-08-17T09:58:48;5.85;;;0.90;;
52322;SDS011;38263;52.920;6.238;2023-08-17T10:01:14;3.60;;;0.93;;
52322;SDS011;38263;52.920;6.238;2023-08-17T10:03:43;4.32;;;1.05;;
52322;SDS011;38263;52.920;6.238;2023-08-17T10:06:12;5.15;;;1.05;;
52322;SDS011;38263;52.920;6.238;2023-08-17T10:08:42;3.90;;;1.13;;
52322;SDS011;38263;52.920;6.238;2023-08-17T10:11:09;4.53;;;1.02;;
52322;SDS011;38263;52.920;6.238;2023-08-17T10:16:22;5.93;;;1.50;;
52322;SDS011;38263;52.920;6.238;2023-08-17T10:18:54;5.55;;;0.90;;
52322;SDS011;38263;52.920;6.238;2023-08-17T10:21:29;4.22;;;1.08;;
52322;SDS011;38263;52.920;6.238;2023-08-17T10:24:01;4.25;;;1.10;;
52322;SDS011;38263;52.920;6.238;2023-08-17T10:26:28;4.55;;;1.02;;
52322;SDS011;38263;52.920;6.238;2023-08-17T10:28:54;3.80;;;0.77;;
52322;SDS011;38263;52.920;6.238;2023-08-17T10:31:23;4.82;;;1.23;;
52322;SDS011;38263;52.920;6.238;2023-08-17T10:33:49;3.33;;;1.10;;
52322;SDS011;38263;52.920;6.238;2023-08-17T10:36:16;2.33;;;0.60;;
52322;SDS011;38263;52.920;6.238;2023-08-17T10:38:42;5.45;;;1.10;;
52322;SDS011;38263;52.920;6.238;2023-08-17T10:41:12;3.50;;;0.98;;
52322;SDS011;38263;52.920;6.238;2023-08-17T10:43:55;3.63;;;1.30;;
52322;SDS011;38263;52.920;6.238;2023-08-17T10:46:31;5.57;;;1.10;;
52322;SDS011;38263;52.920;6.238;2023-08-17T10:49:00;3.45;;;1.00;;
52322;SDS011;38263;52.920;6.238;2023-08-17T10:51:30;5.10;;;1.13;;
52322;SDS011;38263;52.920;6.238;2023-08-17T10:53:58;4.82;;;0.90;;
52322;SDS011;38263;52.920;6.238;2023-08-17T10:56:26;3.47;;;0.90;;
52322;SDS011;38263;52.920;6.238;2023-08-17T10:58:53;2.65;;;1.00;;
52322;SDS011;38263;52.920;6.238;2023-08-17T11:01:30;4.47;;;1.50;;
52322;SDS011;38263;52.920;6.238;2023-08-17T11:04:10;8.85;;;1.38;;
52322;SDS011;38263;52.920;6.238;2023-08-17T11:06:45;3.70;;;1.23;;
52322;SDS011;38263;52.920;6.238;2023-08-17T11:09:11;4.63;;;1.50;;
52322;SDS011;38263;52.920;6.238;2023-08-17T11:11:37;5.20;;;0.90;;
52322;SDS011;38263;52.920;6.238;2023-08-17T11:14:03;5.03;;;1.13;;
52322;SDS011;38263;52.920;6.238;2023-08-17T11:16:29;4.53;;;1.27;;
52322;SDS011;38263;52.920;6.238;2023-08-17T11:18:54;4.97;;;1.48;;
52322;SDS011;38263;52.920;6.238;2023-08-17T11:21:23;2.42;;;1.00;;
52322;SDS011;38263;52.920;6.238;2023-08-17T11:23:49;6.00;;;1.60;;
52322;SDS011;38263;52.920;6.238;2023-08-17T11:26:15;3.33;;;1.23;;
52322;SDS011;38263;52.920;6.238;2023-08-17T11:28:42;4.63;;;1.45;;
52322;SDS011;38263;52.920;6.238;2023-08-17T11:31:10;4.15;;;1.10;;
52322;SDS011;38263;52.920;6.238;2023-08-17T11:33:37;3.88;;;1.52;;
52322;SDS011;38263;52.920;6.238;2023-08-17T11:36:04;5.20;;;1.30;;
52322;SDS011;38263;52.920;6.238;2023-08-17T11:38:32;3.38;;;1.13;;
52322;SDS011;38263;52.920;6.238;2023-08-17T11:40:59;4.78;;;1.45;;
52322;SDS011;38263;52.920;6.238;2023-08-17T11:43:25;2.60;;;1.42;;
52322;SDS011;38263;52.920;6.238;2023-08-17T11:45:52;4.45;;;1.20;;
52322;SDS011;38263;52.920;6.238;2023-08-17T11:48:19;2.22;;;0.93;;
52322;SDS011;38263;52.920;6.238;2023-08-17T11:50:45;2.90;;;1.45;;
52322;SDS011;38263;52.920;6.238;2023-08-17T11:53:11;5.38;;;2.47;;
52322;SDS011;38263;52.920;6.238;2023-08-17T11:55:36;5.10;;;1.80;;
52322;SDS011;38263;52.920;6.238;2023-08-17T11:58:02;5.32;;;1.25;;
52322;SDS011;38263;52.920;6.238;2023-08-17T12:00:34;4.78;;;1.80;;
52322;SDS011;38263;52.920;6.238;2023-08-17T12:03:15;5.20;;;1.50;;
52322;SDS011;38263;52.920;6.238;2023-08-17T12:05:41;6.70;;;1.52;;
52322;SDS011;38263;52.920;6.238;2023-08-17T12:08:08;4.78;;;1.88;;
52322;SDS011;38263;52.920;6.238;2023-08-17T12:10:34;7.47;;;2.20;;
52322;SDS011;38263;52.920;6.238;2023-08-17T12:13:01;6.28;;;1.50;;
52322;SDS011;38263;52.920;6.238;2023-08-17T12:15:30;3.28;;;1.30;;
52322;SDS011;38263;52.920;6.238;2023-08-17T12:17:58;5.93;;;1.63;;
52322;SDS011;38263;52.920;6.238;2023-08-17T12:20:25;3.60;;;1.90;;
52322;SDS011;38263;52.920;6.238;2023-08-17T12:22:51;3.30;;;1.42;;
52322;SDS011;38263;52.920;6.238;2023-08-17T12:25:16;5.78;;;1.98;;
52322;SDS011;38263;52.920;6.238;2023-08-17T12:27:46;5.75;;;2.00;;
52322;SDS011;38263;52.920;6.238;2023-08-17T12:32:52;4.22;;;1.55;;
52322;SDS011;38263;52.920;6.238;2023-08-17T12:35:17;2.50;;;1.20;;
52322;SDS011;38263;52.920;6.238;2023-08-17T12:37:46;4.03;;;1.60;;
52322;SDS011;38263;52.920;6.238;2023-08-17T12:40:12;5.35;;;1.75;;
52322;SDS011;38263;52.920;6.238;2023-08-17T12:42:37;4.45;;;1.40;;
52322;SDS011;38263;52.920;6.238;2023-08-17T12:45:03;3.35;;;1.40;;
52322;SDS011;38263;52.920;6.238;2023-08-17T12:47:29;2.40;;;1.20;;
52322;SDS011;38263;52.920;6.238;2023-08-17T12:49:54;3.30;;;1.40;;
52322;SDS011;38263;52.920;6.238;2023-08-17T12:52:20;4.80;;;1.80;;
52322;SDS011;38263;52.920;6.238;2023-08-17T12:54:45;5.75;;;1.20;;
52322;SDS011;38263;52.920;6.238;2023-08-17T12:57:11;2.20;;;1.35;;
52322;SDS011;38263;52.920;6.238;2023-08-17T12:59:37;6.68;;;1.70;;
52322;SDS011;38263;52.920;6.238;2023-08-17T13:02:02;3.70;;;1.70;;
52322;SDS011;38263;52.920;6.238;2023-08-17T13:04:28;4.40;;;1.60;;
52322;SDS011;38263;52.920;6.238;2023-08-17T13:06:53;4.90;;;1.98;;
52322;SDS011;38263;52.920;6.238;2023-08-17T13:09:20;3.63;;;1.75;;
52322;SDS011;38263;52.920;6.238;2023-08-17T13:11:46;3.53;;;1.75;;
52322;SDS011;38263;52.920;6.238;2023-08-17T13:14:12;3.65;;;1.92;;
52322;SDS011;38263;52.920;6.238;2023-08-17T13:16:39;3.33;;;1.45;;
52322;SDS011;38263;52.920;6.238;2023-08-17T13:19:04;5.32;;;1.70;;
52322;SDS011;38263;52.920;6.238;2023-08-17T13:21:30;3.55;;;2.10;;
52322;SDS011;38263;52.920;6.238;2023-08-17T13:23:55;6.15;;;2.28;;
52322;SDS011;38263;52.920;6.238;2023-08-17T13:26:22;2.97;;;1.75;;
52322;SDS011;38263;52.920;6.238;2023-08-17T13:28:47;6.45;;;2.03;;
52322;SDS011;38263;52.920;6.238;2023-08-17T13:31:13;5.85;;;1.83;;
52322;SDS011;38263;52.920;6.238;2023-08-17T13:33:39;6.28;;;1.70;;
52322;SDS011;38263;52.920;6.238;2023-08-17T13:36:04;5.72;;;1.48;;
52322;SDS011;38263;52.920;6.238;2023-08-17T13:38:30;5.57;;;1.83;;
52322;SDS011;38263;52.920;6.238;2023-08-17T13:40:56;5.10;;;1.95;;
52322;SDS011;38263;52.920;6.238;2023-08-17T13:43:22;5.50;;;1.50;;
52322;SDS011;38263;52.920;6.238;2023-08-17T13:45:47;4.80;;;1.70;;
52322;SDS011;38263;52.920;6.238;2023-08-17T13:48:13;3.28;;;1.45;;
52322;SDS011;38263;52.920;6.238;2023-08-17T13:50:39;6.68;;;2.25;;
52322;SDS011;38263;52.920;6.238;2023-08-17T13:53:05;4.93;;;1.58;;
52322;SDS011;38263;52.920;6.238;2023-08-17T13:55:30;4.18;;;1.95;;
52322;SDS011;38263;52.920;6.238;2023-08-17T13:57:57;6.93;;;1.83;;
52322;SDS011;38263;52.920;6.238;2023-08-17T14:00:23;5.18;;;2.33;;
52322;SDS011;38263;52.920;6.238;2023-08-17T14:02:49;6.55;;;2.20;;
52322;SDS011;38263;52.920;6.238;2023-08-17T14:05:14;3.47;;;1.88;;
52322;SDS011;38263;52.920;6.238;2023-08-17T14:07:40;5.18;;;2.03;;
52322;SDS011;38263;52.920;6.238;2023-08-17T14:10:05;7.20;;;2.35;;
52322;SDS011;38263;52.920;6.238;2023-08-17T14:12:31;2.88;;;1.75;;
52322;SDS011;38263;52.920;6.238;2023-08-17T14:14:57;6.50;;;2.72;;
52322;SDS011;38263;52.920;6.238;2023-08-17T14:17:23;6.05;;;2.60;;
52322;SDS011;38263;52.920;6.238;2023-08-17T14:19:49;5.05;;;2.10;;
52322;SDS011;38263;52.920;6.238;2023-08-17T14:22:14;3.80;;;1.80;;
52322;SDS011;38263;52.920;6.238;2023-08-17T14:24:40;3.85;;;1.73;;
52322;SDS011;38263;52.920;6.238;2023-08-17T14:27:05;8.43;;;2.42;;
52322;SDS011;38263;52.920;6.238;2023-08-17T14:29:31;6.28;;;2.35;;
52322;SDS011;38263;52.920;6.238;2023-08-17T14:31:56;5.28;;;2.33;;
52322;SDS011;38263;52.920;6.238;2023-08-17T14:34:22;5.72;;;2.20;;
52322;SDS011;38263;52.920;6.238;2023-08-17T14:36:48;6.82;;;3.35;;
52322;SDS011;38263;52.920;6.238;2023-08-17T14:39:13;4.82;;;1.90;;
52322;SDS011;38263;52.920;6.238;2023-08-17T14:41:39;7.40;;;2.28;;
52322;SDS011;38263;52.920;6.238;2023-08-17T14:44:04;6.97;;;2.03;;
52322;SDS011;38263;52.920;6.238;2023-08-17T14:46:30;4.70;;;2.53;;
52322;SDS011;38263;52.920;6.238;2023-08-17T14:48:56;4.35;;;2.03;;
52322;SDS011;38263;52.920;6.238;2023-08-17T14:51:23;2.75;;;1.55;;